Arverne, NY

6:54 PM EDT on October 31, 2014 (GMT -0400)
Howard Beach | Change Station
CLOSE
Current Station
Personal Weather Station
Location: Queens, NY
Elevation: 7 ft
Nearby Weather Stations

Elev 7 ft 40.66 °N, 73.84 °W | Updated 27 seconds ago

Overcast
Overcast
54.3 °F
Feels Like 54.3 °F
N
2.0
Wind Variable Wind from South
Gusts 4.0 mph

Today
High -- | Low -- °F
--% Chance of Precip.
Yesterday
High -- | Low -- °F
Precip. -- in
7:24 AM 5:52 PM
First Quarter, 59% visible
Pressure 29.91 in
Visibility 10.0 miles
Clouds Few 3000 ft
Scattered Clouds 5500 ft
Overcast 7000 ft
Dew Point 45 °F
Humidity 71%
Rainfall 0.00 in
Snow Depth Not available.
UV 0 out of 12
Pollen .10 out of 12
Air Quality Not available.
Flu Activity Not available.
METAR KJFK 312251Z 03006KT 10SM FEW030 SCT055 OVC070 12/06 A2991 RMK AO2 SLP129 T01220056 $

More Conditions Fewer Conditions

Pressure 29.91 in
Visibility 10.0 miles
Clouds Few 3000 ft
Scattered Clouds 5500 ft
Overcast 7000 ft
Dew Point 45 °F
Humidity 71%
Rainfall 0.00 in
Snow Depth Not available.
UV 0 out of 12
Pollen .10 out of 12
Air Quality Not available.
Flu Activity Not available.
METAR KJFK 312251Z 03006KT 10SM FEW030 SCT055 OVC070 12/06 A2991 RMK AO2 SLP129 T01220056 $

More Conditions Fewer Conditions

10-Day Weather Forecast

Almanac

Astronomy

Oct. 31, 2014 Rise Set
Actual Time
Civil Twilight
Nautical Twilight
Astronomical Twilight
Moon
Length of Visible Light
Length of Day
Tomorrow will be .
, % of the Moon is Illuminated

Today's Extremes

State Highs State Lows

Community

WunderPhotos

Upload Photos

1,766,770 photos uploaded!

WunderBlogs® & News

Nearby

Air Quality

  Air Quality AQ Index Pollutant
Not available.

Snow Depth

Station Depth Elevation

Earthquake Activity

City Distance Mag. Time & Date
Minimum magnitude displayed is 2.5.

Coastal Water Temperatures

Place Temperature

Nearby Weather Stations